sensor_id;sensor_type;location;lat;lon;timestamp;pressure;altitude;pressure_sealevel;temperature;humidity
39275;BME280;24980;48.874;2.332;2023-03-03T00:00:43;101653.57;;;26.40;32.79
39275;BME280;24980;48.874;2.332;2023-03-03T00:03:13;101659.43;;;26.41;32.84
39275;BME280;24980;48.874;2.332;2023-03-03T00:05:40;101657.44;;;26.42;32.91
39275;BME280;24980;48.874;2.332;2023-03-03T00:08:10;101653.11;;;26.46;32.96
39275;BME280;24980;48.874;2.332;2023-03-03T00:10:40;101654.08;;;26.49;33.00
39275;BME280;24980;48.874;2.332;2023-03-03T00:13:18;101651.44;;;26.49;33.04
39275;BME280;24980;48.874;2.332;2023-03-03T00:15:41;101653.97;;;26.51;33.06
39275;BME280;24980;48.874;2.332;2023-03-03T00:18:21;101655.20;;;26.53;33.08
39275;BME280;24980;48.874;2.332;2023-03-03T00:20:52;101656.97;;;26.54;33.10
39275;BME280;24980;48.874;2.332;2023-03-03T00:23:18;101657.56;;;26.54;33.14
39275;BME280;24980;48.874;2.332;2023-03-03T00:25:44;101654.25;;;26.54;33.20
39275;BME280;24980;48.874;2.332;2023-03-03T00:28:28;101655.56;;;26.55;33.26
39275;BME280;24980;48.874;2.332;2023-03-03T00:30:44;101660.48;;;26.56;33.31
39275;BME280;24980;48.874;2.332;2023-03-03T00:33:24;101663.03;;;26.56;33.34
39275;BME280;24980;48.874;2.332;2023-03-03T00:35:44;101662.35;;;26.57;33.39
39275;BME280;24980;48.874;2.332;2023-03-03T00:38:20;101659.63;;;26.56;33.40
39275;BME280;24980;48.874;2.332;2023-03-03T00:43:22;101658.02;;;26.57;33.43
39275;BME280;24980;48.874;2.332;2023-03-03T00:45:47;101656.14;;;26.57;33.43
39275;BME280;24980;48.874;2.332;2023-03-03T00:48:22;101659.98;;;26.57;33.43
39275;BME280;24980;48.874;2.332;2023-03-03T00:50:46;101660.91;;;26.57;33.43
39275;BME280;24980;48.874;2.332;2023-03-03T00:53:18;101662.95;;;26.57;33.43
39275;BME280;24980;48.874;2.332;2023-03-03T00:55:48;101662.11;;;26.56;33.43
39275;BME280;24980;48.874;2.332;2023-03-03T00:58:19;101662.28;;;26.56;33.44
39275;BME280;24980;48.874;2.332;2023-03-03T01:00:53;101661.98;;;26.55;33.44
39275;BME280;24980;48.874;2.332;2023-03-03T01:03:20;101660.23;;;26.56;33.43
39275;BME280;24980;48.874;2.332;2023-03-03T01:05:49;101658.97;;;26.55;33.43
39275;BME280;24980;48.874;2.332;2023-03-03T01:08:19;101661.08;;;26.56;33.43
39275;BME280;24980;48.874;2.332;2023-03-03T01:10:53;101662.35;;;26.57;33.43
39275;BME280;24980;48.874;2.332;2023-03-03T01:15:52;101668.55;;;26.58;33.43
39275;BME280;24980;48.874;2.332;2023-03-03T01:18:20;101665.33;;;26.57;33.44
39275;BME280;24980;48.874;2.332;2023-03-03T01:20:52;101666.86;;;26.57;33.44
39275;BME280;24980;48.874;2.332;2023-03-03T01:23:21;101670.94;;;26.57;33.44
39275;BME280;24980;48.874;2.332;2023-03-03T01:25:51;101672.30;;;26.58;33.44
39275;BME280;24980;48.874;2.332;2023-03-03T01:28:21;101667.57;;;26.59;33.44
39275;BME280;24980;48.874;2.332;2023-03-03T01:30:52;101668.31;;;26.61;33.46
39275;BME280;24980;48.874;2.332;2023-03-03T01:33:22;101672.23;;;26.61;33.49
39275;BME280;24980;48.874;2.332;2023-03-03T01:35:52;101670.70;;;26.61;33.54
39275;BME280;24980;48.874;2.332;2023-03-03T01:38:23;101673.50;;;26.61;33.54
39275;BME280;24980;48.874;2.332;2023-03-03T01:40:56;101667.25;;;26.62;33.55
39275;BME280;24980;48.874;2.332;2023-03-03T01:43:30;101667.83;;;26.63;33.54
39275;BME280;24980;48.874;2.332;2023-03-03T01:48:30;101659.45;;;26.65;33.53
39275;BME280;24980;48.874;2.332;2023-03-03T01:51:00;101653.24;;;26.65;33.53
39275;BME280;24980;48.874;2.332;2023-03-03T01:53:32;101658.59;;;26.65;33.53
39275;BME280;24980;48.874;2.332;2023-03-03T01:55:58;101657.28;;;26.64;33.53
39275;BME280;24980;48.874;2.332;2023-03-03T01:58:29;101657.38;;;26.64;33.53
39275;BME280;24980;48.874;2.332;2023-03-03T02:01:00;101657.78;;;26.65;33.52
39275;BME280;24980;48.874;2.332;2023-03-03T02:03:28;101654.94;;;26.65;33.52
39275;BME280;24980;48.874;2.332;2023-03-03T02:06:04;101657.83;;;26.66;33.51
39275;BME280;24980;48.874;2.332;2023-03-03T02:08:35;101661.15;;;26.65;33.51
39275;BME280;24980;48.874;2.332;2023-03-03T02:11:05;101659.45;;;26.65;33.49
39275;BME280;24980;48.874;2.332;2023-03-03T02:13:30;101654.98;;;26.65;33.49
39275;BME280;24980;48.874;2.332;2023-03-03T02:16:00;101654.81;;;26.64;33.50
39275;BME280;24980;48.874;2.332;2023-03-03T02:18:32;101654.13;;;26.64;33.50
39275;BME280;24980;48.874;2.332;2023-03-03T02:21:09;101652.52;;;26.64;33.49
39275;BME280;24980;48.874;2.332;2023-03-03T02:23:38;101651.25;;;26.64;33.49
39275;BME280;24980;48.874;2.332;2023-03-03T02:26:11;101648.11;;;26.63;33.48
39275;BME280;24980;48.874;2.332;2023-03-03T02:28:37;101647.08;;;26.64;33.48
39275;BME280;24980;48.874;2.332;2023-03-03T02:31:07;101652.37;;;26.62;33.49
39275;BME280;24980;48.874;2.332;2023-03-03T02:33:36;101650.75;;;26.62;33.49
39275;BME280;24980;48.874;2.332;2023-03-03T02:36:17;101647.59;;;26.63;33.50
39275;BME280;24980;48.874;2.332;2023-03-03T02:41:32;101646.78;;;26.65;33.52
39275;BME280;24980;48.874;2.332;2023-03-03T02:46:07;101645.62;;;26.65;33.52
39275;BME280;24980;48.874;2.332;2023-03-03T02:48:37;101651.67;;;26.63;33.52
39275;BME280;24980;48.874;2.332;2023-03-03T02:51:07;101646.32;;;26.63;33.52
39275;BME280;24980;48.874;2.332;2023-03-03T02:53:37;101650.58;;;26.63;33.50
39275;BME280;24980;48.874;2.332;2023-03-03T02:56:07;101654.30;;;26.64;33.49
39275;BME280;24980;48.874;2.332;2023-03-03T02:58:37;101657.58;;;26.65;33.47
39275;BME280;24980;48.874;2.332;2023-03-03T03:01:08;101653.24;;;26.65;33.47
39275;BME280;24980;48.874;2.332;2023-03-03T03:03:38;101654.69;;;26.65;33.47
39275;BME280;24980;48.874;2.332;2023-03-03T03:06:08;101650.94;;;26.65;33.46
39275;BME280;24980;48.874;2.332;2023-03-03T03:08:40;101653.06;;;26.66;33.46
39275;BME280;24980;48.874;2.332;2023-03-03T03:11:12;101656.55;;;26.66;33.47
39275;BME280;24980;48.874;2.332;2023-03-03T03:16:13;101646.07;;;26.68;33.50
39275;BME280;24980;48.874;2.332;2023-03-03T03:18:41;101644.45;;;26.68;33.51
39275;BME280;24980;48.874;2.332;2023-03-03T03:21:13;101641.05;;;26.67;33.52
39275;BME280;24980;48.874;2.332;2023-03-03T03:23:42;101645.22;;;26.68;33.53
39275;BME280;24980;48.874;2.332;2023-03-03T03:26:14;101644.67;;;26.68;33.56
39275;BME280;24980;48.874;2.332;2023-03-03T03:28:45;101647.56;;;26.69;33.59
39275;BME280;24980;48.874;2.332;2023-03-03T03:31:19;101645.67;;;26.70;33.62
39275;BME280;24980;48.874;2.332;2023-03-03T03:33:45;101644.26;;;26.72;33.65
39275;BME280;24980;48.874;2.332;2023-03-03T03:36:15;101642.98;;;26.72;33.67
39275;BME280;24980;48.874;2.332;2023-03-03T03:38:45;101645.11;;;26.73;33.69
39275;BME280;24980;48.874;2.332;2023-03-03T03:41:18;101646.12;;;26.72;33.71
39275;BME280;24980;48.874;2.332;2023-03-03T03:43:48;101648.69;;;26.72;33.74
39275;BME280;24980;48.874;2.332;2023-03-03T03:46:20;101655.91;;;26.72;33.74
39275;BME280;24980;48.874;2.332;2023-03-03T03:48:49;101658.70;;;26.73;33.71
39275;BME280;24980;48.874;2.332;2023-03-03T03:51:18;101668.14;;;26.74;33.71
39275;BME280;24980;48.874;2.332;2023-03-03T03:53:54;101667.03;;;26.74;33.69
39275;BME280;24980;48.874;2.332;2023-03-03T03:56:21;101669.00;;;26.73;33.69
39275;BME280;24980;48.874;2.332;2023-03-03T03:58:49;101672.75;;;26.72;33.67
39275;BME280;24980;48.874;2.332;2023-03-03T04:01:19;101671.77;;;26.71;33.66
39275;BME280;24980;48.874;2.332;2023-03-03T04:03:49;101674.08;;;26.70;33.65
39275;BME280;24980;48.874;2.332;2023-03-03T04:06:19;101674.84;;;26.70;33.61
39275;BME280;24980;48.874;2.332;2023-03-03T04:08:50;101669.36;;;26.71;33.59
39275;BME280;24980;48.874;2.332;2023-03-03T04:11:20;101675.35;;;26.70;33.57
39275;BME280;24980;48.874;2.332;2023-03-03T04:13:50;101679.34;;;26.71;33.58
39275;BME280;24980;48.874;2.332;2023-03-03T04:16:20;101673.41;;;26.70;33.58
39275;BME280;24980;48.874;2.332;2023-03-03T04:18:50;101675.71;;;26.68;33.58
39275;BME280;24980;48.874;2.332;2023-03-03T04:21:20;101671.11;;;26.69;33.59
39275;BME280;24980;48.874;2.332;2023-03-03T04:23:50;101673.06;;;26.70;33.58
39275;BME280;24980;48.874;2.332;2023-03-03T04:26:24;101678.16;;;26.71;33.55
39275;BME280;24980;48.874;2.332;2023-03-03T04:28:51;101684.06;;;26.72;33.56
39275;BME280;24980;48.874;2.332;2023-03-03T04:31:22;101683.85;;;26.71;33.53
39275;BME280;24980;48.874;2.332;2023-03-03T04:33:52;101688.11;;;26.70;33.53
39275;BME280;24980;48.874;2.332;2023-03-03T04:36:22;101686.84;;;26.70;33.52
39275;BME280;24980;48.874;2.332;2023-03-03T04:38:55;101689.14;;;26.69;33.51
39275;BME280;24980;48.874;2.332;2023-03-03T04:41:33;101695.25;;;26.70;33.50
39275;BME280;24980;48.874;2.332;2023-03-03T04:43:54;101691.98;;;26.71;33.46
39275;BME280;24980;48.874;2.332;2023-03-03T04:46:24;101686.19;;;26.72;33.45
39275;BME280;24980;48.874;2.332;2023-03-03T04:48:55;101692.10;;;26.71;33.44
39275;BME280;24980;48.874;2.332;2023-03-03T04:51:25;101689.80;;;26.71;33.44
39275;BME280;24980;48.874;2.332;2023-03-03T04:53:55;101690.66;;;26.70;33.44
39275;BME280;24980;48.874;2.332;2023-03-03T04:56:26;101692.78;;;26.71;33.43
39275;BME280;24980;48.874;2.332;2023-03-03T04:59:01;101690.44;;;26.72;33.42
39275;BME280;24980;48.874;2.332;2023-03-03T05:01:27;101687.63;;;26.72;33.42
39275;BME280;24980;48.874;2.332;2023-03-03T05:03:57;101686.88;;;26.72;33.42
39275;BME280;24980;48.874;2.332;2023-03-03T05:06:30;101687.63;;;26.72;33.42
39275;BME280;24980;48.874;2.332;2023-03-03T05:08:57;101690.35;;;26.72;33.42
39275;BME280;24980;48.874;2.332;2023-03-03T05:11:28;101693.83;;;26.74;33.42
39275;BME280;24980;48.874;2.332;2023-03-03T05:13:58;101694.20;;;26.76;33.41
39275;BME280;24980;48.874;2.332;2023-03-03T05:16:29;101693.34;;;26.77;33.40
39275;BME280;24980;48.874;2.332;2023-03-03T05:18:59;101692.32;;;26.76;33.40
39275;BME280;24980;48.874;2.332;2023-03-03T05:21:30;101690.20;;;26.76;33.40
39275;BME280;24980;48.874;2.332;2023-03-03T05:24:03;101696.58;;;26.76;33.40
39275;BME280;24980;48.874;2.332;2023-03-03T05:26:31;101693.84;;;26.77;33.39
39275;BME280;24980;48.874;2.332;2023-03-03T05:29:01;101688.95;;;26.79;33.38
39275;BME280;24980;48.874;2.332;2023-03-03T05:31:31;101688.68;;;26.80;33.38
39275;BME280;24980;48.874;2.332;2023-03-03T05:34:02;101693.08;;;26.82;33.39
39275;BME280;24980;48.874;2.332;2023-03-03T05:36:33;101696.14;;;26.82;33.42
39275;BME280;24980;48.874;2.332;2023-03-03T05:39:02;101694.27;;;26.83;33.44
39275;BME280;24980;48.874;2.332;2023-03-03T05:41:32;101692.89;;;26.84;33.47
39275;BME280;24980;48.874;2.332;2023-03-03T05:44:03;101695.14;;;26.86;33.50
39275;BME280;24980;48.874;2.332;2023-03-03T05:46:33;101693.05;;;26.88;33.52
39275;BME280;24980;48.874;2.332;2023-03-03T05:49:04;101694.66;;;26.88;33.54
39275;BME280;24980;48.874;2.332;2023-03-03T05:51:34;101692.35;;;26.89;33.58
39275;BME280;24980;48.874;2.332;2023-03-03T05:54:09;101697.97;;;26.88;33.60
39275;BME280;24980;48.874;2.332;2023-03-03T05:56:35;101697.94;;;26.87;33.60
39275;BME280;24980;48.874;2.332;2023-03-03T05:59:06;101701.03;;;26.89;33.59
39275;BME280;24980;48.874;2.332;2023-03-03T06:01:37;101698.64;;;26.90;33.57
39275;BME280;24980;48.874;2.332;2023-03-03T06:04:06;101700.12;;;26.91;33.56
39275;BME280;24980;48.874;2.332;2023-03-03T06:06:37;101701.48;;;26.91;33.57
39275;BME280;24980;48.874;2.332;2023-03-03T06:09:07;101702.28;;;26.90;33.57
39275;BME280;24980;48.874;2.332;2023-03-03T06:11:37;101697.70;;;26.90;33.55
39275;BME280;24980;48.874;2.332;2023-03-03T06:14:10;101701.44;;;26.90;33.52
39275;BME280;24980;48.874;2.332;2023-03-03T06:16:38;101702.06;;;26.93;33.48
39275;BME280;24980;48.874;2.332;2023-03-03T06:19:08;101706.09;;;26.94;33.45
39275;BME280;24980;48.874;2.332;2023-03-03T06:21:39;101709.48;;;26.96;33.44
39275;BME280;24980;48.874;2.332;2023-03-03T06:24:16;101704.80;;;26.96;33.43
39275;BME280;24980;48.874;2.332;2023-03-03T06:26:42;101712.38;;;26.95;33.41
39275;BME280;24980;48.874;2.332;2023-03-03T06:29:09;101714.27;;;26.94;33.39
39275;BME280;24980;48.874;2.332;2023-03-03T06:31:42;101723.19;;;26.96;33.37
39275;BME280;24980;48.874;2.332;2023-03-03T06:34:09;101730.49;;;26.96;33.36
39275;BME280;24980;48.874;2.332;2023-03-03T06:36:41;101732.53;;;26.96;33.35
39275;BME280;24980;48.874;2.332;2023-03-03T06:39:10;101732.54;;;26.96;33.38
39275;BME280;24980;48.874;2.332;2023-03-03T06:41:41;101739.94;;;26.96;33.39
39275;BME280;24980;48.874;2.332;2023-03-03T06:44:11;101744.61;;;26.97;33.42
39275;BME280;24980;48.874;2.332;2023-03-03T06:46:46;101750.17;;;26.99;33.41
39275;BME280;24980;48.874;2.332;2023-03-03T06:49:15;101747.58;;;27.00;33.41
39275;BME280;24980;48.874;2.332;2023-03-03T06:51:49;101757.17;;;27.02;33.40
39275;BME280;24980;48.874;2.332;2023-03-03T06:54:19;101759.97;;;27.02;33.41
39275;BME280;24980;48.874;2.332;2023-03-03T06:56:52;101762.87;;;27.02;33.38
39275;BME280;24980;48.874;2.332;2023-03-03T06:59:26;101762.11;;;27.02;33.38
39275;BME280;24980;48.874;2.332;2023-03-03T07:01:50;101766.69;;;27.03;33.37
39275;BME280;24980;48.874;2.332;2023-03-03T07:04:32;101770.34;;;27.03;33.39
39275;BME280;24980;48.874;2.332;2023-03-03T07:06:51;101772.94;;;27.04;33.38
39275;BME280;24980;48.874;2.332;2023-03-03T07:09:23;101774.05;;;27.04;33.36
39275;BME280;24980;48.874;2.332;2023-03-03T07:11:48;101783.11;;;27.03;33.35
39275;BME280;24980;48.874;2.332;2023-03-03T07:14:23;101786.79;;;27.01;33.35
39275;BME280;24980;48.874;2.332;2023-03-03T07:17:04;101790.97;;;27.01;33.36
39275;BME280;24980;48.874;2.332;2023-03-03T07:21:55;101801.51;;;27.01;33.32
39275;BME280;24980;48.874;2.332;2023-03-03T07:24:28;101799.98;;;27.01;33.33
39275;BME280;24980;48.874;2.332;2023-03-03T07:26:52;101794.15;;;27.00;33.36
39275;BME280;24980;48.874;2.332;2023-03-03T07:29:27;101796.88;;;27.00;33.38
39275;BME280;24980;48.874;2.332;2023-03-03T07:31:57;101799.53;;;26.98;33.42
39275;BME280;24980;48.874;2.332;2023-03-03T07:34:38;101805.37;;;26.96;33.47
39275;BME280;24980;48.874;2.332;2023-03-03T07:36:57;101807.74;;;26.97;33.49
39275;BME280;24980;48.874;2.332;2023-03-03T07:39:34;101814.30;;;26.96;33.50
39275;BME280;24980;48.874;2.332;2023-03-03T07:41:59;101810.04;;;26.96;33.48
39275;BME280;24980;48.874;2.332;2023-03-03T07:44:36;101811.84;;;26.96;33.47
39275;BME280;24980;48.874;2.332;2023-03-03T07:46:55;101811.50;;;26.95;33.45
39275;BME280;24980;48.874;2.332;2023-03-03T07:49:36;101821.84;;;26.93;33.44
39275;BME280;24980;48.874;2.332;2023-03-03T07:51:57;101820.73;;;26.93;33.41
39275;BME280;24980;48.874;2.332;2023-03-03T07:54:35;101827.42;;;26.94;33.39
39275;BME280;24980;48.874;2.332;2023-03-03T07:57:19;101826.01;;;26.94;33.38
39275;BME280;24980;48.874;2.332;2023-03-03T07:59:27;101829.92;;;26.93;33.37
39275;BME280;24980;48.874;2.332;2023-03-03T08:01:58;101835.29;;;26.93;33.38
39275;BME280;24980;48.874;2.332;2023-03-03T08:04:46;101841.42;;;26.92;33.41
39275;BME280;24980;48.874;2.332;2023-03-03T08:07:02;101838.27;;;26.93;33.40
39275;BME280;24980;48.874;2.332;2023-03-03T08:09:44;101842.90;;;26.95;33.38
39275;BME280;24980;48.874;2.332;2023-03-03T08:17:01;101851.48;;;26.80;33.25
39275;BME280;24980;48.874;2.332;2023-03-03T08:19:36;101845.89;;;26.54;33.16
39275;BME280;24980;48.874;2.332;2023-03-03T08:22:19;101845.06;;;26.48;33.02
39275;BME280;24980;48.874;2.332;2023-03-03T08:24:32;101852.36;;;26.53;32.89
39275;BME280;24980;48.874;2.332;2023-03-03T08:27:02;101846.86;;;26.58;32.83
39275;BME280;24980;48.874;2.332;2023-03-03T08:29:32;101856.28;;;26.62;32.81
39275;BME280;24980;48.874;2.332;2023-03-03T08:32:03;101859.12;;;26.65;32.82
39275;BME280;24980;48.874;2.332;2023-03-03T08:34:33;101862.52;;;26.66;32.84
39275;BME280;24980;48.874;2.332;2023-03-03T08:37:03;101861.92;;;26.67;32.88
39275;BME280;24980;48.874;2.332;2023-03-03T08:39:33;101862.05;;;26.69;32.89
39275;BME280;24980;48.874;2.332;2023-03-03T08:42:03;101859.64;;;26.71;32.90
39275;BME280;24980;48.874;2.332;2023-03-03T08:44:33;101859.17;;;26.73;32.90
39275;BME280;24980;48.874;2.332;2023-03-03T08:47:05;101859.00;;;26.74;32.92
39275;BME280;24980;48.874;2.332;2023-03-03T08:49:35;101861.30;;;26.73;32.94
39275;BME280;24980;48.874;2.332;2023-03-03T08:52:05;101860.02;;;26.73;32.99
39275;BME280;24980;48.874;2.332;2023-03-03T08:54:36;101870.44;;;26.75;33.04
39275;BME280;24980;48.874;2.332;2023-03-03T08:57:13;101875.11;;;26.77;33.07
39275;BME280;24980;48.874;2.332;2023-03-03T08:59:39;101874.47;;;26.78;33.11
39275;BME280;24980;48.874;2.332;2023-03-03T09:02:08;101876.33;;;26.79;33.13
39275;BME280;24980;48.874;2.332;2023-03-03T09:04:41;101872.75;;;26.79;33.15
39275;BME280;24980;48.874;2.332;2023-03-03T09:07:11;101870.89;;;26.78;33.18
39275;BME280;24980;48.874;2.332;2023-03-03T09:09:38;101872.41;;;26.79;33.21
39275;BME280;24980;48.874;2.332;2023-03-03T09:12:26;101871.56;;;26.79;33.21
39275;BME280;24980;48.874;2.332;2023-03-03T09:14:39;101869.77;;;26.80;33.23
39275;BME280;24980;48.874;2.332;2023-03-03T09:17:29;101871.63;;;26.82;33.23
39275;BME280;24980;48.874;2.332;2023-03-03T09:19:41;101874.70;;;26.81;33.24
39275;BME280;24980;48.874;2.332;2023-03-03T09:22:23;101876.33;;;26.80;33.27
39275;BME280;24980;48.874;2.332;2023-03-03T09:24:48;101877.59;;;26.80;33.27
39275;BME280;24980;48.874;2.332;2023-03-03T09:27:32;101882.36;;;26.80;33.28
39275;BME280;24980;48.874;2.332;2023-03-03T09:29:42;101882.27;;;26.82;33.27
39275;BME280;24980;48.874;2.332;2023-03-03T09:32:30;101879.28;;;26.83;33.26
39275;BME280;24980;48.874;2.332;2023-03-03T09:37:37;101885.91;;;26.84;33.29
39275;BME280;24980;48.874;2.332;2023-03-03T09:39:58;101885.14;;;26.83;33.29
39275;BME280;24980;48.874;2.332;2023-03-03T09:49:55;101894.28;;;26.85;33.30
39275;BME280;24980;48.874;2.332;2023-03-03T09:52:41;101890.28;;;26.86;33.29
39275;BME280;24980;48.874;2.332;2023-03-03T09:55:09;101882.16;;;26.84;33.29
39275;BME280;24980;48.874;2.332;2023-03-03T10:07:34;101901.94;;;26.96;33.27
39275;BME280;24980;48.874;2.332;2023-03-03T10:25:15;101917.11;;;27.09;33.38
39275;BME280;24980;48.874;2.332;2023-03-03T10:32:45;101922.95;;;27.15;33.44
39275;BME280;24980;48.874;2.332;2023-03-03T10:42:42;101920.97;;;27.20;33.40
39275;BME280;24980;48.874;2.332;2023-03-03T10:45:26;101921.64;;;27.21;33.40
39275;BME280;24980;48.874;2.332;2023-03-03T10:50:26;101915.44;;;27.20;33.40
39275;BME280;24980;48.874;2.332;2023-03-03T10:55:20;101918.12;;;27.19;33.40
39275;BME280;24980;48.874;2.332;2023-03-03T11:05:34;101919.34;;;27.22;33.41
39275;BME280;24980;48.874;2.332;2023-03-03T11:07:43;101918.73;;;27.22;33.42
39275;BME280;24980;48.874;2.332;2023-03-03T11:10:16;101919.30;;;27.23;33.45
39275;BME280;24980;48.874;2.332;2023-03-03T11:12:52;101919.38;;;27.23;33.47
39275;BME280;24980;48.874;2.332;2023-03-03T11:18:07;101913.88;;;27.26;33.50
39275;BME280;24980;48.874;2.332;2023-03-03T11:23:06;101907.27;;;27.29;33.52
39275;BME280;24980;48.874;2.332;2023-03-03T11:25:26;101900.69;;;27.31;33.51
39275;BME280;24980;48.874;2.332;2023-03-03T11:32:56;101901.95;;;27.32;33.50
39275;BME280;24980;48.874;2.332;2023-03-03T11:35:27;101901.66;;;27.33;33.49
39275;BME280;24980;48.874;2.332;2023-03-03T11:38:01;101900.55;;;27.33;33.49
39275;BME280;24980;48.874;2.332;2023-03-03T11:40:27;101898.43;;;27.33;33.49
39275;BME280;24980;48.874;2.332;2023-03-03T11:45:23;101897.12;;;27.30;33.50
39275;BME280;24980;48.874;2.332;2023-03-03T11:48:00;101889.21;;;27.29;33.51
39275;BME280;24980;48.874;2.332;2023-03-03T11:50:33;101888.06;;;27.28;33.51
39275;BME280;24980;48.874;2.332;2023-03-03T11:58:12;101886.88;;;27.28;33.53
39275;BME280;24980;48.874;2.332;2023-03-03T12:10:40;101882.53;;;27.29;33.59
39275;BME280;24980;48.874;2.332;2023-03-03T12:12:56;101875.47;;;27.28;33.60
39275;BME280;24980;48.874;2.332;2023-03-03T12:15:29;101872.23;;;27.28;33.61
39275;BME280;24980;48.874;2.332;2023-03-03T12:20:29;101866.56;;;27.30;33.60
39275;BME280;24980;48.874;2.332;2023-03-03T12:22:59;101869.12;;;27.29;33.61
39275;BME280;24980;48.874;2.332;2023-03-03T12:25:43;101859.33;;;27.30;33.62
39275;BME280;24980;48.874;2.332;2023-03-03T12:28:19;101862.66;;;27.29;33.64
39275;BME280;24980;48.874;2.332;2023-03-03T12:33:11;101852.86;;;27.30;33.66
39275;BME280;24980;48.874;2.332;2023-03-03T12:35:42;101855.50;;;27.29;33.69
39275;BME280;24980;48.874;2.332;2023-03-03T12:40:31;101856.23;;;27.28;33.77
39275;BME280;24980;48.874;2.332;2023-03-03T12:43:22;101844.30;;;27.29;33.80
39275;BME280;24980;48.874;2.332;2023-03-03T12:48:03;101842.38;;;27.31;33.85
39275;BME280;24980;48.874;2.332;2023-03-03T12:53:04;101850.79;;;27.32;33.87
39275;BME280;24980;48.874;2.332;2023-03-03T12:55:50;101851.22;;;27.32;33.87
39275;BME280;24980;48.874;2.332;2023-03-03T13:03:13;101843.44;;;27.33;33.88
39275;BME280;24980;48.874;2.332;2023-03-03T13:06:12;101842.83;;;27.33;33.87
39275;BME280;24980;48.874;2.332;2023-03-03T13:10:38;101836.02;;;27.33;33.90
39275;BME280;24980;48.874;2.332;2023-03-03T13:13:27;101832.09;;;27.34;33.91
39275;BME280;24980;48.874;2.332;2023-03-03T13:18:29;101827.41;;;27.35;33.91
39275;BME280;24980;48.874;2.332;2023-03-03T13:20:52;101832.77;;;27.34;33.90
39275;BME280;24980;48.874;2.332;2023-03-03T13:23:11;101829.45;;;27.35;33.89
39275;BME280;24980;48.874;2.332;2023-03-03T13:25:54;101823.23;;;27.35;33.88
39275;BME280;24980;48.874;2.332;2023-03-03T13:28:16;101821.53;;;27.35;33.86
39275;BME280;24980;48.874;2.332;2023-03-03T13:30:39;101821.91;;;27.36;33.85
39275;BME280;24980;48.874;2.332;2023-03-03T13:33:12;101819.86;;;27.37;33.84
39275;BME280;24980;48.874;2.332;2023-03-03T13:38:12;101816.27;;;27.38;33.82
39275;BME280;24980;48.874;2.332;2023-03-03T13:41:15;101822.56;;;27.39;33.81
39275;BME280;24980;48.874;2.332;2023-03-03T13:43:17;101819.46;;;27.39;33.81
39275;BME280;24980;48.874;2.332;2023-03-03T13:50:52;101816.62;;;27.38;33.80
39275;BME280;24980;48.874;2.332;2023-03-03T13:55:49;101818.17;;;27.36;33.80
39275;BME280;24980;48.874;2.332;2023-03-03T13:58:38;101816.59;;;27.35;33.78
39275;BME280;24980;48.874;2.332;2023-03-03T14:01:03;101810.06;;;27.33;33.76
39275;BME280;24980;48.874;2.332;2023-03-03T14:05:47;101819.62;;;27.28;33.72
39275;BME280;24980;48.874;2.332;2023-03-03T14:10:58;101813.23;;;27.24;33.67
39275;BME280;24980;48.874;2.332;2023-03-03T14:13:24;101816.02;;;27.21;33.64
39275;BME280;24980;48.874;2.332;2023-03-03T14:16:10;101812.50;;;27.18;33.61
39275;BME280;24980;48.874;2.332;2023-03-03T14:18:28;101818.09;;;27.15;33.58
39275;BME280;24980;48.874;2.332;2023-03-03T14:20:52;101816.41;;;27.13;33.55
39275;BME280;24980;48.874;2.332;2023-03-03T14:26:11;101817.22;;;27.12;33.52
39275;BME280;24980;48.874;2.332;2023-03-03T14:28:19;101812.96;;;27.13;33.51
39275;BME280;24980;48.874;2.332;2023-03-03T14:30:47;101814.45;;;27.14;33.47
39275;BME280;24980;48.874;2.332;2023-03-03T14:33:19;101809.92;;;27.15;33.49
39275;BME280;24980;48.874;2.332;2023-03-03T14:36:02;101808.12;;;27.16;33.50
39275;BME280;24980;48.874;2.332;2023-03-03T14:38:23;101808.94;;;27.17;33.49
39275;BME280;24980;48.874;2.332;2023-03-03T14:41:14;101803.91;;;27.18;33.52
39275;BME280;24980;48.874;2.332;2023-03-03T14:43:23;101801.43;;;27.19;33.54
39275;BME280;24980;48.874;2.332;2023-03-03T14:45:55;101800.88;;;27.20;33.59
39275;BME280;24980;48.874;2.332;2023-03-03T14:48:26;101797.79;;;27.22;33.62
39275;BME280;24980;48.874;2.332;2023-03-03T14:51:14;101792.89;;;27.24;33.65
39275;BME280;24980;48.874;2.332;2023-03-03T14:53:38;101796.92;;;27.26;33.68
39275;BME280;24980;48.874;2.332;2023-03-03T14:55:53;101798.52;;;27.28;33.72
39275;BME280;24980;48.874;2.332;2023-03-03T14:58:37;101796.84;;;27.30;33.78
39275;BME280;24980;48.874;2.332;2023-03-03T15:01:11;101797.41;;;27.29;33.84
39275;BME280;24980;48.874;2.332;2023-03-03T15:03:29;101797.61;;;27.30;33.91
39275;BME280;24980;48.874;2.332;2023-03-03T15:05:56;101797.93;;;27.32;33.96
39275;BME280;24980;48.874;2.332;2023-03-03T15:08:34;101798.73;;;27.34;34.00
39275;BME280;24980;48.874;2.332;2023-03-03T15:13:33;101795.87;;;27.36;34.10
39275;BME280;24980;48.874;2.332;2023-03-03T15:16:03;101795.92;;;27.38;34.12
39275;BME280;24980;48.874;2.332;2023-03-03T15:18:29;101801.31;;;27.41;34.14
39275;BME280;24980;48.874;2.332;2023-03-03T15:21:06;101802.88;;;27.43;34.18
39275;BME280;24980;48.874;2.332;2023-03-03T15:23:37;101803.48;;;27.44;34.22
39275;BME280;24980;48.874;2.332;2023-03-03T15:33:49;101802.83;;;27.52;34.45
39275;BME280;24980;48.874;2.332;2023-03-03T15:36:27;101806.94;;;27.54;34.50
39275;BME280;24980;48.874;2.332;2023-03-03T15:38:37;101808.25;;;27.56;34.55
39275;BME280;24980;48.874;2.332;2023-03-03T15:41:22;101804.67;;;27.60;34.60
39275;BME280;24980;48.874;2.332;2023-03-03T15:46:20;101814.75;;;27.67;34.67
39275;BME280;24980;48.874;2.332;2023-03-03T15:53:54;101815.30;;;27.76;34.78